sensor_id;sensor_type;location;lat;lon;timestamp;P1;durP1;ratioP1;P2;durP2;ratioP2
74267;SDS011;62638;51.362;12.472;2022-10-17T00:00:26;5.68;;;2.38;;
74267;SDS011;62638;51.362;12.472;2022-10-17T00:02:54;3.50;;;2.08;;
74267;SDS011;62638;51.362;12.472;2022-10-17T00:05:19;3.83;;;2.03;;
74267;SDS011;62638;51.362;12.472;2022-10-17T00:07:45;4.85;;;2.60;;
74267;SDS011;62638;51.362;12.472;2022-10-17T00:10:10;3.73;;;2.37;;
74267;SDS011;62638;51.362;12.472;2022-10-17T00:12:35;3.63;;;2.20;;
74267;SDS011;62638;51.362;12.472;2022-10-17T00:15:02;4.07;;;2.20;;
74267;SDS011;62638;51.362;12.472;2022-10-17T00:17:29;5.97;;;2.60;;
74267;SDS011;62638;51.362;12.472;2022-10-17T00:19:55;5.10;;;2.30;;
74267;SDS011;62638;51.362;12.472;2022-10-17T00:24:48;5.20;;;2.13;;
74267;SDS011;62638;51.362;12.472;2022-10-17T00:27:13;3.77;;;2.40;;
74267;SDS011;62638;51.362;12.472;2022-10-17T00:29:38;4.35;;;2.55;;
74267;SDS011;62638;51.362;12.472;2022-10-17T00:32:04;4.97;;;2.47;;
74267;SDS011;62638;51.362;12.472;2022-10-17T00:34:29;5.07;;;1.75;;
74267;SDS011;62638;51.362;12.472;2022-10-17T00:36:55;4.70;;;2.25;;
74267;SDS011;62638;51.362;12.472;2022-10-17T00:39:20;3.38;;;2.08;;
74267;SDS011;62638;51.362;12.472;2022-10-17T00:41:45;3.35;;;1.95;;
74267;SDS011;62638;51.362;12.472;2022-10-17T00:46:55;3.53;;;1.80;;
74267;SDS011;62638;51.362;12.472;2022-10-17T00:49:27;3.55;;;2.22;;
74267;SDS011;62638;51.362;12.472;2022-10-17T00:51:56;2.75;;;1.65;;
74267;SDS011;62638;51.362;12.472;2022-10-17T00:54:30;4.78;;;1.90;;
74267;SDS011;62638;51.362;12.472;2022-10-17T00:56:58;4.45;;;2.20;;
74267;SDS011;62638;51.362;12.472;2022-10-17T00:59:24;5.07;;;2.17;;
74267;SDS011;62638;51.362;12.472;2022-10-17T01:01:56;4.97;;;2.08;;
74267;SDS011;62638;51.362;12.472;2022-10-17T01:04:25;3.95;;;1.95;;
74267;SDS011;62638;51.362;12.472;2022-10-17T01:06:51;4.50;;;2.28;;
74267;SDS011;62638;51.362;12.472;2022-10-17T01:09:16;2.53;;;2.10;;
74267;SDS011;62638;51.362;12.472;2022-10-17T01:11:49;4.70;;;2.30;;
74267;SDS011;62638;51.362;12.472;2022-10-17T01:17:00;3.15;;;2.08;;
74267;SDS011;62638;51.362;12.472;2022-10-17T01:22:22;4.70;;;2.58;;
74267;SDS011;62638;51.362;12.472;2022-10-17T01:24:58;4.38;;;2.67;;
74267;SDS011;62638;51.362;12.472;2022-10-17T01:27:36;3.13;;;2.35;;
74267;SDS011;62638;51.362;12.472;2022-10-17T01:33:11;3.50;;;2.05;;
74267;SDS011;62638;51.362;12.472;2022-10-17T01:41:25;3.42;;;2.35;;
74267;SDS011;62638;51.362;12.472;2022-10-17T01:43:54;4.85;;;2.53;;
74267;SDS011;62638;51.362;12.472;2022-10-17T01:46:31;4.50;;;2.30;;
74267;SDS011;62638;51.362;12.472;2022-10-17T01:49:01;3.90;;;2.08;;
74267;SDS011;62638;51.362;12.472;2022-10-17T01:51:31;4.82;;;2.47;;
74267;SDS011;62638;51.362;12.472;2022-10-17T01:54:03;3.78;;;1.98;;
74267;SDS011;62638;51.362;12.472;2022-10-17T01:56:29;2.75;;;1.90;;
74267;SDS011;62638;51.362;12.472;2022-10-17T01:58:59;5.60;;;2.40;;
74267;SDS011;62638;51.362;12.472;2022-10-17T02:01:31;2.90;;;1.80;;
74267;SDS011;62638;51.362;12.472;2022-10-17T02:06:24;3.85;;;2.20;;
74267;SDS011;62638;51.362;12.472;2022-10-17T02:08:50;5.37;;;2.87;;
74267;SDS011;62638;51.362;12.472;2022-10-17T02:11:22;3.58;;;1.95;;
74267;SDS011;62638;51.362;12.472;2022-10-17T02:16:48;4.70;;;2.22;;
74267;SDS011;62638;51.362;12.472;2022-10-17T02:24:42;4.18;;;2.03;;
74267;SDS011;62638;51.362;12.472;2022-10-17T02:27:13;3.78;;;2.20;;
74267;SDS011;62638;51.362;12.472;2022-10-17T02:29:55;3.67;;;2.28;;
74267;SDS011;62638;51.362;12.472;2022-10-17T02:32:25;4.78;;;2.53;;
74267;SDS011;62638;51.362;12.472;2022-10-17T02:34:55;3.42;;;2.38;;
74267;SDS011;62638;51.362;12.472;2022-10-17T02:37:25;7.90;;;1.95;;
74267;SDS011;62638;51.362;12.472;2022-10-17T02:39:53;5.78;;;2.40;;
74267;SDS011;62638;51.362;12.472;2022-10-17T02:42:22;3.95;;;1.90;;
74267;SDS011;62638;51.362;12.472;2022-10-17T02:44:49;3.90;;;2.20;;
74267;SDS011;62638;51.362;12.472;2022-10-17T02:47:17;4.90;;;1.70;;
74267;SDS011;62638;51.362;12.472;2022-10-17T02:49:49;3.17;;;1.85;;
74267;SDS011;62638;51.362;12.472;2022-10-17T02:52:17;2.75;;;1.90;;
74267;SDS011;62638;51.362;12.472;2022-10-17T02:55:03;3.75;;;2.08;;
74267;SDS011;62638;51.362;12.472;2022-10-17T02:57:37;3.22;;;2.00;;
74267;SDS011;62638;51.362;12.472;2022-10-17T03:00:06;5.18;;;2.22;;
74267;SDS011;62638;51.362;12.472;2022-10-17T03:02:53;5.57;;;2.30;;
74267;SDS011;62638;51.362;12.472;2022-10-17T03:05:20;3.53;;;2.20;;
74267;SDS011;62638;51.362;12.472;2022-10-17T03:07:47;3.63;;;2.35;;
74267;SDS011;62638;51.362;12.472;2022-10-17T03:10:12;4.90;;;2.42;;
74267;SDS011;62638;51.362;12.472;2022-10-17T03:12:38;4.60;;;2.90;;
74267;SDS011;62638;51.362;12.472;2022-10-17T03:15:03;2.88;;;2.00;;
74267;SDS011;62638;51.362;12.472;2022-10-17T03:17:29;3.55;;;2.35;;
74267;SDS011;62638;51.362;12.472;2022-10-17T03:19:55;4.07;;;2.33;;
74267;SDS011;62638;51.362;12.472;2022-10-17T03:22:20;11.63;;;2.30;;
74267;SDS011;62638;51.362;12.472;2022-10-17T03:24:45;4.65;;;2.50;;
74267;SDS011;62638;51.362;12.472;2022-10-17T03:27:11;5.43;;;2.73;;
74267;SDS011;62638;51.362;12.472;2022-10-17T03:29:36;4.10;;;2.35;;
74267;SDS011;62638;51.362;12.472;2022-10-17T03:32:01;5.77;;;2.87;;
74267;SDS011;62638;51.362;12.472;2022-10-17T03:34:27;5.22;;;2.42;;
74267;SDS011;62638;51.362;12.472;2022-10-17T03:36:52;4.17;;;2.50;;
74267;SDS011;62638;51.362;12.472;2022-10-17T03:39:17;4.60;;;2.80;;
74267;SDS011;62638;51.362;12.472;2022-10-17T03:41:43;7.63;;;2.42;;
74267;SDS011;62638;51.362;12.472;2022-10-17T03:44:08;5.97;;;2.30;;
74267;SDS011;62638;51.362;12.472;2022-10-17T03:46:33;3.97;;;2.03;;
74267;SDS011;62638;51.362;12.472;2022-10-17T03:48:59;4.07;;;1.98;;
74267;SDS011;62638;51.362;12.472;2022-10-17T03:51:24;4.03;;;2.53;;
74267;SDS011;62638;51.362;12.472;2022-10-17T03:53:49;3.97;;;2.00;;
74267;SDS011;62638;51.362;12.472;2022-10-17T03:56:16;4.88;;;2.60;;
74267;SDS011;62638;51.362;12.472;2022-10-17T03:58:43;4.40;;;2.60;;
74267;SDS011;62638;51.362;12.472;2022-10-17T04:01:10;6.88;;;2.20;;
74267;SDS011;62638;51.362;12.472;2022-10-17T04:03:36;4.20;;;2.25;;
74267;SDS011;62638;51.362;12.472;2022-10-17T04:06:02;3.90;;;2.20;;
74267;SDS011;62638;51.362;12.472;2022-10-17T04:08:29;4.85;;;2.67;;
74267;SDS011;62638;51.362;12.472;2022-10-17T04:11:01;4.25;;;2.33;;
74267;SDS011;62638;51.362;12.472;2022-10-17T04:13:29;3.22;;;2.13;;
74267;SDS011;62638;51.362;12.472;2022-10-17T04:16:02;3.63;;;2.10;;
74267;SDS011;62638;51.362;12.472;2022-10-17T04:18:30;4.57;;;2.40;;
74267;SDS011;62638;51.362;12.472;2022-10-17T04:20:55;2.55;;;2.08;;
74267;SDS011;62638;51.362;12.472;2022-10-17T04:23:21;2.88;;;1.50;;
74267;SDS011;62638;51.362;12.472;2022-10-17T04:25:47;3.15;;;1.80;;
74267;SDS011;62638;51.362;12.472;2022-10-17T04:28:12;3.00;;;2.08;;
74267;SDS011;62638;51.362;12.472;2022-10-17T04:30:38;2.75;;;1.88;;
74267;SDS011;62638;51.362;12.472;2022-10-17T04:33:04;3.83;;;1.75;;
74267;SDS011;62638;51.362;12.472;2022-10-17T04:35:29;3.97;;;1.80;;
74267;SDS011;62638;51.362;12.472;2022-10-17T04:37:55;4.43;;;2.07;;
74267;SDS011;62638;51.362;12.472;2022-10-17T04:40:20;3.28;;;2.00;;
74267;SDS011;62638;51.362;12.472;2022-10-17T04:42:45;2.58;;;1.52;;
74267;SDS011;62638;51.362;12.472;2022-10-17T04:45:11;3.20;;;1.85;;
74267;SDS011;62638;51.362;12.472;2022-10-17T04:47:36;3.15;;;1.58;;
74267;SDS011;62638;51.362;12.472;2022-10-17T04:50:02;2.40;;;1.47;;
74267;SDS011;62638;51.362;12.472;2022-10-17T04:52:28;3.63;;;1.80;;
74267;SDS011;62638;51.362;12.472;2022-10-17T04:54:53;3.17;;;2.10;;
74267;SDS011;62638;51.362;12.472;2022-10-17T04:57:19;3.47;;;2.33;;
74267;SDS011;62638;51.362;12.472;2022-10-17T04:59:44;5.13;;;1.90;;
74267;SDS011;62638;51.362;12.472;2022-10-17T05:02:09;3.35;;;1.77;;
74267;SDS011;62638;51.362;12.472;2022-10-17T05:04:35;3.88;;;1.52;;
74267;SDS011;62638;51.362;12.472;2022-10-17T05:07:00;3.35;;;1.60;;
74267;SDS011;62638;51.362;12.472;2022-10-17T05:09:26;2.40;;;1.40;;
74267;SDS011;62638;51.362;12.472;2022-10-17T05:11:52;2.28;;;1.38;;
74267;SDS011;62638;51.362;12.472;2022-10-17T05:14:17;2.75;;;1.58;;
74267;SDS011;62638;51.362;12.472;2022-10-17T05:16:42;2.88;;;1.77;;
74267;SDS011;62638;51.362;12.472;2022-10-17T05:19:07;1.83;;;1.30;;
74267;SDS011;62638;51.362;12.472;2022-10-17T05:21:33;3.23;;;1.20;;
74267;SDS011;62638;51.362;12.472;2022-10-17T05:23:58;4.75;;;1.85;;
74267;SDS011;62638;51.362;12.472;2022-10-17T05:26:24;3.95;;;1.45;;
74267;SDS011;62638;51.362;12.472;2022-10-17T05:28:50;4.15;;;1.67;;
74267;SDS011;62638;51.362;12.472;2022-10-17T05:31:18;3.15;;;1.88;;
74267;SDS011;62638;51.362;12.472;2022-10-17T05:33:44;2.67;;;1.60;;
74267;SDS011;62638;51.362;12.472;2022-10-17T05:36:09;3.72;;;1.55;;
74267;SDS011;62638;51.362;12.472;2022-10-17T05:38:35;2.70;;;1.50;;
74267;SDS011;62638;51.362;12.472;2022-10-17T05:41:01;2.80;;;1.48;;
74267;SDS011;62638;51.362;12.472;2022-10-17T05:43:28;3.03;;;1.77;;
74267;SDS011;62638;51.362;12.472;2022-10-17T05:45:53;2.40;;;1.50;;
74267;SDS011;62638;51.362;12.472;2022-10-17T05:48:19;2.33;;;1.20;;
74267;SDS011;62638;51.362;12.472;2022-10-17T05:50:45;2.60;;;1.30;;
74267;SDS011;62638;51.362;12.472;2022-10-17T05:53:11;2.25;;;1.27;;
74267;SDS011;62638;51.362;12.472;2022-10-17T05:55:36;2.47;;;1.30;;
74267;SDS011;62638;51.362;12.472;2022-10-17T05:58:02;1.43;;;1.20;;
74267;SDS011;62638;51.362;12.472;2022-10-17T06:00:27;4.18;;;1.58;;
74267;SDS011;62638;51.362;12.472;2022-10-17T06:02:53;2.43;;;0.93;;
74267;SDS011;62638;51.362;12.472;2022-10-17T06:05:18;2.10;;;1.25;;
74267;SDS011;62638;51.362;12.472;2022-10-17T06:07:44;5.35;;;1.10;;
74267;SDS011;62638;51.362;12.472;2022-10-17T06:10:09;4.70;;;1.38;;
74267;SDS011;62638;51.362;12.472;2022-10-17T06:12:40;2.33;;;1.48;;
74267;SDS011;62638;51.362;12.472;2022-10-17T06:15:06;2.97;;;1.63;;
74267;SDS011;62638;51.362;12.472;2022-10-17T06:17:31;2.42;;;1.60;;
74267;SDS011;62638;51.362;12.472;2022-10-17T06:19:57;1.63;;;1.27;;
74267;SDS011;62638;51.362;12.472;2022-10-17T06:22:22;2.93;;;1.40;;
74267;SDS011;62638;51.362;12.472;2022-10-17T06:24:47;2.42;;;1.13;;
74267;SDS011;62638;51.362;12.472;2022-10-17T06:27:13;7.50;;;1.85;;
74267;SDS011;62638;51.362;12.472;2022-10-17T06:29:38;2.30;;;1.17;;
74267;SDS011;62638;51.362;12.472;2022-10-17T06:32:04;1.63;;;1.10;;
74267;SDS011;62638;51.362;12.472;2022-10-17T06:34:30;1.30;;;0.90;;
74267;SDS011;62638;51.362;12.472;2022-10-17T06:36:55;2.63;;;1.53;;
74267;SDS011;62638;51.362;12.472;2022-10-17T06:39:20;2.42;;;1.25;;
74267;SDS011;62638;51.362;12.472;2022-10-17T06:41:46;1.90;;;1.17;;
74267;SDS011;62638;51.362;12.472;2022-10-17T06:44:11;2.00;;;1.20;;
74267;SDS011;62638;51.362;12.472;2022-10-17T06:46:37;2.00;;;1.20;;
74267;SDS011;62638;51.362;12.472;2022-10-17T06:49:02;2.30;;;1.30;;
74267;SDS011;62638;51.362;12.472;2022-10-17T06:51:28;3.33;;;1.13;;
74267;SDS011;62638;51.362;12.472;2022-10-17T06:53:55;1.60;;;1.13;;
74267;SDS011;62638;51.362;12.472;2022-10-17T06:56:21;2.08;;;1.17;;
74267;SDS011;62638;51.362;12.472;2022-10-17T06:58:46;2.37;;;1.17;;
74267;SDS011;62638;51.362;12.472;2022-10-17T07:01:13;1.58;;;0.88;;
74267;SDS011;62638;51.362;12.472;2022-10-17T07:03:38;1.40;;;1.05;;
74267;SDS011;62638;51.362;12.472;2022-10-17T07:06:05;1.63;;;0.85;;
74267;SDS011;62638;51.362;12.472;2022-10-17T07:08:31;1.45;;;1.10;;
74267;SDS011;62638;51.362;12.472;2022-10-17T07:10:56;2.05;;;0.82;;
74267;SDS011;62638;51.362;12.472;2022-10-17T07:13:22;1.65;;;1.25;;
74267;SDS011;62638;51.362;12.472;2022-10-17T07:15:47;1.58;;;0.82;;
74267;SDS011;62638;51.362;12.472;2022-10-17T07:18:13;1.55;;;0.80;;
74267;SDS011;62638;51.362;12.472;2022-10-17T07:20:38;1.63;;;0.98;;
74267;SDS011;62638;51.362;12.472;2022-10-17T07:23:04;2.75;;;1.27;;
74267;SDS011;62638;51.362;12.472;2022-10-17T07:25:30;2.15;;;1.05;;
74267;SDS011;62638;51.362;12.472;2022-10-17T07:27:55;1.55;;;1.00;;
74267;SDS011;62638;51.362;12.472;2022-10-17T07:30:21;1.67;;;0.90;;
74267;SDS011;62638;51.362;12.472;2022-10-17T07:32:47;1.52;;;0.80;;
74267;SDS011;62638;51.362;12.472;2022-10-17T07:35:13;1.10;;;0.68;;
74267;SDS011;62638;51.362;12.472;2022-10-17T07:37:38;1.83;;;0.90;;
74267;SDS011;62638;51.362;12.472;2022-10-17T07:40:04;1.85;;;1.08;;
74267;SDS011;62638;51.362;12.472;2022-10-17T07:42:40;1.83;;;0.80;;
74267;SDS011;62638;51.362;12.472;2022-10-17T07:45:05;1.10;;;0.75;;
74267;SDS011;62638;51.362;12.472;2022-10-17T07:47:31;2.13;;;0.95;;
74267;SDS011;62638;51.362;12.472;2022-10-17T07:49:59;1.30;;;1.00;;
74267;SDS011;62638;51.362;12.472;2022-10-17T07:52:24;2.28;;;1.05;;
74267;SDS011;62638;51.362;12.472;2022-10-17T07:54:50;1.30;;;1.00;;
74267;SDS011;62638;51.362;12.472;2022-10-17T07:57:15;0.57;;;0.50;;
74267;SDS011;62638;51.362;12.472;2022-10-17T07:59:40;1.67;;;0.90;;
74267;SDS011;62638;51.362;12.472;2022-10-17T08:02:06;1.38;;;0.90;;
74267;SDS011;62638;51.362;12.472;2022-10-17T08:04:33;4.03;;;0.90;;
74267;SDS011;62638;51.362;12.472;2022-10-17T08:07:00;5.40;;;0.88;;
74267;SDS011;62638;51.362;12.472;2022-10-17T08:09:25;1.10;;;1.00;;
74267;SDS011;62638;51.362;12.472;2022-10-17T08:11:51;2.63;;;0.73;;
74267;SDS011;62638;51.362;12.472;2022-10-17T08:14:16;0.90;;;0.70;;
74267;SDS011;62638;51.362;12.472;2022-10-17T08:16:41;2.78;;;1.00;;
74267;SDS011;62638;51.362;12.472;2022-10-17T08:19:07;0.90;;;0.68;;
74267;SDS011;62638;51.362;12.472;2022-10-17T08:24:01;4.22;;;1.00;;
74267;SDS011;62638;51.362;12.472;2022-10-17T08:26:26;0.90;;;0.60;;
74267;SDS011;62638;51.362;12.472;2022-10-17T08:28:52;1.83;;;1.00;;
74267;SDS011;62638;51.362;12.472;2022-10-17T08:31:18;1.17;;;0.80;;
74267;SDS011;62638;51.362;12.472;2022-10-17T08:33:45;1.17;;;0.90;;
74267;SDS011;62638;51.362;12.472;2022-10-17T08:36:12;2.00;;;0.98;;
74267;SDS011;62638;51.362;12.472;2022-10-17T08:38:39;1.55;;;0.98;;
74267;SDS011;62638;51.362;12.472;2022-10-17T08:41:12;2.95;;;1.00;;
74267;SDS011;62638;51.362;12.472;2022-10-17T08:46:30;1.60;;;0.90;;
74267;SDS011;62638;51.362;12.472;2022-10-17T08:49:01;1.40;;;0.60;;
74267;SDS011;62638;51.362;12.472;2022-10-17T08:51:33;1.73;;;0.90;;
74267;SDS011;62638;51.362;12.472;2022-10-17T08:54:14;1.52;;;0.75;;
74267;SDS011;62638;51.362;12.472;2022-10-17T08:56:49;1.30;;;0.90;;
74267;SDS011;62638;51.362;12.472;2022-10-17T08:59:19;1.58;;;0.80;;
74267;SDS011;62638;51.362;12.472;2022-10-17T09:01:50;1.45;;;1.10;;
74267;SDS011;62638;51.362;12.472;2022-10-17T09:04:39;1.38;;;0.65;;
74267;SDS011;62638;51.362;12.472;2022-10-17T09:17:50;2.15;;;1.30;;
74267;SDS011;62638;51.362;12.472;2022-10-17T09:20:53;2.65;;;0.60;;
74267;SDS011;62638;51.362;12.472;2022-10-17T09:23:20;2.05;;;0.80;;
74267;SDS011;62638;51.362;12.472;2022-10-17T09:25:49;2.33;;;1.00;;
74267;SDS011;62638;51.362;12.472;2022-10-17T09:28:22;1.33;;;1.00;;
74267;SDS011;62638;51.362;12.472;2022-10-17T09:33:28;1.55;;;0.73;;
74267;SDS011;62638;51.362;12.472;2022-10-17T09:35:57;2.50;;;1.17;;
74267;SDS011;62638;51.362;12.472;2022-10-17T09:38:24;1.20;;;0.90;;
74267;SDS011;62638;51.362;12.472;2022-10-17T09:41:05;2.50;;;1.00;;
74267;SDS011;62638;51.362;12.472;2022-10-17T09:43:38;1.17;;;0.80;;
74267;SDS011;62638;51.362;12.472;2022-10-17T09:46:11;3.55;;;0.73;;
74267;SDS011;62638;51.362;12.472;2022-10-17T09:48:48;1.10;;;0.68;;
74267;SDS011;62638;51.362;12.472;2022-10-17T09:51:17;1.42;;;0.70;;
74267;SDS011;62638;51.362;12.472;2022-10-17T09:53:48;1.25;;;0.70;;
74267;SDS011;62638;51.362;12.472;2022-10-17T09:56:18;1.75;;;1.02;;
74267;SDS011;62638;51.362;12.472;2022-10-17T10:01:18;1.67;;;0.88;;
74267;SDS011;62638;51.362;12.472;2022-10-17T10:03:44;1.45;;;0.75;;
74267;SDS011;62638;51.362;12.472;2022-10-17T10:08:49;1.10;;;0.80;;
74267;SDS011;62638;51.362;12.472;2022-10-17T10:11:17;1.23;;;0.93;;
74267;SDS011;62638;51.362;12.472;2022-10-17T10:13:47;5.72;;;0.82;;
74267;SDS011;62638;51.362;12.472;2022-10-17T10:16:14;1.48;;;0.90;;
74267;SDS011;62638;51.362;12.472;2022-10-17T10:18:42;1.95;;;0.60;;
74267;SDS011;62638;51.362;12.472;2022-10-17T10:21:15;0.93;;;0.85;;
74267;SDS011;62638;51.362;12.472;2022-10-17T10:23:41;1.48;;;0.80;;
74267;SDS011;62638;51.362;12.472;2022-10-17T10:29:05;1.25;;;0.80;;
74267;SDS011;62638;51.362;12.472;2022-10-17T10:31:44;1.30;;;0.90;;
74267;SDS011;62638;51.362;12.472;2022-10-17T10:34:13;1.00;;;0.70;;
74267;SDS011;62638;51.362;12.472;2022-10-17T10:36:43;1.38;;;0.90;;
74267;SDS011;62638;51.362;12.472;2022-10-17T10:39:17;1.10;;;0.73;;
74267;SDS011;62638;51.362;12.472;2022-10-17T10:41:47;1.20;;;0.68;;
74267;SDS011;62638;51.362;12.472;2022-10-17T10:44:13;0.85;;;0.70;;
74267;SDS011;62638;51.362;12.472;2022-10-17T10:46:43;1.50;;;0.60;;
74267;SDS011;62638;51.362;12.472;2022-10-17T10:49:26;3.42;;;0.85;;
74267;SDS011;62638;51.362;12.472;2022-10-17T10:51:55;1.33;;;0.68;;
74267;SDS011;62638;51.362;12.472;2022-10-17T10:54:25;1.13;;;0.88;;
74267;SDS011;62638;51.362;12.472;2022-10-17T10:56:59;2.15;;;0.77;;
74267;SDS011;62638;51.362;12.472;2022-10-17T10:59:32;1.13;;;0.73;;
74267;SDS011;62638;51.362;12.472;2022-10-17T11:02:17;1.33;;;0.75;;
74267;SDS011;62638;51.362;12.472;2022-10-17T11:04:50;2.72;;;1.05;;
74267;SDS011;62638;51.362;12.472;2022-10-17T11:07:31;3.00;;;0.73;;
74267;SDS011;62638;51.362;12.472;2022-10-17T11:12:40;3.50;;;0.90;;
74267;SDS011;62638;51.362;12.472;2022-10-17T11:21:15;1.60;;;0.70;;
74267;SDS011;62638;51.362;12.472;2022-10-17T11:23:53;0.93;;;0.68;;
74267;SDS011;62638;51.362;12.472;2022-10-17T11:26:30;1.27;;;0.77;;
74267;SDS011;62638;51.362;12.472;2022-10-17T11:29:01;2.22;;;0.82;;
74267;SDS011;62638;51.362;12.472;2022-10-17T11:31:32;2.00;;;0.80;;
74267;SDS011;62638;51.362;12.472;2022-10-17T11:34:02;1.00;;;0.60;;
74267;SDS011;62638;51.362;12.472;2022-10-17T11:36:29;1.52;;;0.77;;
74267;SDS011;62638;51.362;12.472;2022-10-17T11:39:02;3.10;;;0.77;;
74267;SDS011;62638;51.362;12.472;2022-10-17T11:41:36;1.63;;;0.75;;
74267;SDS011;62638;51.362;12.472;2022-10-17T11:44:17;1.60;;;0.80;;
74267;SDS011;62638;51.362;12.472;2022-10-17T11:46:49;2.15;;;0.93;;
74267;SDS011;62638;51.362;12.472;2022-10-17T11:49:19;1.88;;;0.68;;
74267;SDS011;62638;51.362;12.472;2022-10-17T11:54:53;1.50;;;0.65;;
74267;SDS011;62638;51.362;12.472;2022-10-17T12:03:21;2.65;;;0.95;;
74267;SDS011;62638;51.362;12.472;2022-10-17T12:11:55;1.05;;;0.73;;
74267;SDS011;62638;51.362;12.472;2022-10-17T12:17:02;1.65;;;0.68;;
74267;SDS011;62638;51.362;12.472;2022-10-17T12:19:30;0.95;;;0.60;;
74267;SDS011;62638;51.362;12.472;2022-10-17T12:24:54;1.15;;;0.70;;
74267;SDS011;62638;51.362;12.472;2022-10-17T12:35:27;1.30;;;0.90;;
74267;SDS011;62638;51.362;12.472;2022-10-17T12:43:00;1.08;;;0.57;;
74267;SDS011;62638;51.362;12.472;2022-10-17T12:51:07;1.23;;;0.88;;
74267;SDS011;62638;51.362;12.472;2022-10-17T12:56:44;1.52;;;0.90;;
74267;SDS011;62638;51.362;12.472;2022-10-17T12:59:13;2.17;;;0.80;;
74267;SDS011;62638;51.362;12.472;2022-10-17T13:01:42;1.85;;;1.02;;
74267;SDS011;62638;51.362;12.472;2022-10-17T13:04:10;1.75;;;1.17;;
74267;SDS011;62638;51.362;12.472;2022-10-17T13:06:38;2.85;;;0.90;;
74267;SDS011;62638;51.362;12.472;2022-10-17T13:09:25;4.60;;;0.93;;
74267;SDS011;62638;51.362;12.472;2022-10-17T13:11:51;1.33;;;0.90;;
74267;SDS011;62638;51.362;12.472;2022-10-17T13:14:18;1.45;;;0.90;;
74267;SDS011;62638;51.362;12.472;2022-10-17T13:16:57;2.00;;;0.90;;
74267;SDS011;62638;51.362;12.472;2022-10-17T13:19:31;1.35;;;0.57;;
74267;SDS011;62638;51.362;12.472;2022-10-17T13:22:03;1.73;;;0.77;;
74267;SDS011;62638;51.362;12.472;2022-10-17T13:24:36;1.23;;;0.90;;
74267;SDS011;62638;51.362;12.472;2022-10-17T13:27:04;1.98;;;1.15;;
74267;SDS011;62638;51.362;12.472;2022-10-17T13:29:44;1.70;;;1.05;;
74267;SDS011;62638;51.362;12.472;2022-10-17T13:32:10;1.33;;;0.60;;
74267;SDS011;62638;51.362;12.472;2022-10-17T13:34:36;3.00;;;0.70;;
74267;SDS011;62638;51.362;12.472;2022-10-17T13:37:03;1.23;;;0.70;;
74267;SDS011;62638;51.362;12.472;2022-10-17T13:39:38;1.38;;;0.82;;
74267;SDS011;62638;51.362;12.472;2022-10-17T13:42:13;1.15;;;0.43;;
74267;SDS011;62638;51.362;12.472;2022-10-17T13:44:44;1.02;;;0.68;;
74267;SDS011;62638;51.362;12.472;2022-10-17T13:47:19;3.42;;;1.15;;
74267;SDS011;62638;51.362;12.472;2022-10-17T13:49:46;2.00;;;1.00;;
74267;SDS011;62638;51.362;12.472;2022-10-17T13:52:14;1.10;;;0.75;;
74267;SDS011;62638;51.362;12.472;2022-10-17T13:54:44;1.30;;;0.80;;
74267;SDS011;62638;51.362;12.472;2022-10-17T13:59:48;1.42;;;0.90;;
74267;SDS011;62638;51.362;12.472;2022-10-17T14:02:26;1.38;;;0.75;;
74267;SDS011;62638;51.362;12.472;2022-10-17T14:05:00;1.00;;;0.68;;
74267;SDS011;62638;51.362;12.472;2022-10-17T14:07:30;1.50;;;0.80;;
74267;SDS011;62638;51.362;12.472;2022-10-17T14:10:04;1.17;;;0.70;;
74267;SDS011;62638;51.362;12.472;2022-10-17T14:12:30;2.83;;;0.98;;
74267;SDS011;62638;51.362;12.472;2022-10-17T14:14:57;1.88;;;0.70;;
74267;SDS011;62638;51.362;12.472;2022-10-17T14:17:26;3.42;;;0.75;;
74267;SDS011;62638;51.362;12.472;2022-10-17T14:19:57;1.77;;;0.73;;
74267;SDS011;62638;51.362;12.472;2022-10-17T14:22:28;1.20;;;0.65;;
74267;SDS011;62638;51.362;12.472;2022-10-17T14:24:57;1.75;;;0.63;;
74267;SDS011;62638;51.362;12.472;2022-10-17T14:30:29;1.17;;;0.65;;
74267;SDS011;62638;51.362;12.472;2022-10-17T14:32:55;1.00;;;0.60;;
74267;SDS011;62638;51.362;12.472;2022-10-17T14:35:23;0.82;;;0.55;;
74267;SDS011;62638;51.362;12.472;2022-10-17T14:37:50;1.48;;;0.70;;
74267;SDS011;62638;51.362;12.472;2022-10-17T14:40:19;0.82;;;0.50;;
74267;SDS011;62638;51.362;12.472;2022-10-17T14:42:49;1.05;;;0.55;;
74267;SDS011;62638;51.362;12.472;2022-10-17T14:45:21;4.93;;;0.70;;
74267;SDS011;62638;51.362;12.472;2022-10-17T14:47:51;1.58;;;0.70;;
74267;SDS011;62638;51.362;12.472;2022-10-17T14:50:21;1.65;;;0.70;;
74267;SDS011;62638;51.362;12.472;2022-10-17T14:52:58;0.60;;;0.60;;
74267;SDS011;62638;51.362;12.472;2022-10-17T14:55:25;1.77;;;1.13;;
74267;SDS011;62638;51.362;12.472;2022-10-17T14:57:52;5.53;;;1.38;;
74267;SDS011;62638;51.362;12.472;2022-10-17T15:00:18;1.52;;;0.77;;
74267;SDS011;62638;51.362;12.472;2022-10-17T15:02:46;1.95;;;0.82;;
74267;SDS011;62638;51.362;12.472;2022-10-17T15:05:12;1.58;;;0.88;;
74267;SDS011;62638;51.362;12.472;2022-10-17T15:07:38;1.45;;;0.88;;
74267;SDS011;62638;51.362;12.472;2022-10-17T15:10:04;1.30;;;0.75;;
74267;SDS011;62638;51.362;12.472;2022-10-17T15:12:31;1.92;;;0.60;;
74267;SDS011;62638;51.362;12.472;2022-10-17T15:14:56;1.10;;;0.50;;
74267;SDS011;62638;51.362;12.472;2022-10-17T15:17:29;1.13;;;0.60;;
74267;SDS011;62638;51.362;12.472;2022-10-17T15:19:55;1.00;;;0.80;;
74267;SDS011;62638;51.362;12.472;2022-10-17T15:22:22;1.85;;;1.10;;
74267;SDS011;62638;51.362;12.472;2022-10-17T15:24:48;1.15;;;0.70;;
74267;SDS011;62638;51.362;12.472;2022-10-17T15:27:20;1.02;;;0.50;;
74267;SDS011;62638;51.362;12.472;2022-10-17T15:29:47;2.08;;;1.42;;
74267;SDS011;62638;51.362;12.472;2022-10-17T15:32:13;1.95;;;0.85;;
74267;SDS011;62638;51.362;12.472;2022-10-17T15:34:38;1.13;;;0.75;;
74267;SDS011;62638;51.362;12.472;2022-10-17T15:37:04;1.03;;;0.60;;
74267;SDS011;62638;51.362;12.472;2022-10-17T15:39:32;2.05;;;0.90;;
74267;SDS011;62638;51.362;12.472;2022-10-17T15:41:57;1.45;;;0.70;;
74267;SDS011;62638;51.362;12.472;2022-10-17T15:44:23;3.85;;;1.23;;
74267;SDS011;62638;51.362;12.472;2022-10-17T15:46:49;1.85;;;0.80;;
74267;SDS011;62638;51.362;12.472;2022-10-17T15:49:15;1.75;;;1.00;;
74267;SDS011;62638;51.362;12.472;2022-10-17T15:51:42;2.25;;;0.73;;
74267;SDS011;62638;51.362;12.472;2022-10-17T15:54:08;1.45;;;0.65;;
74267;SDS011;62638;51.362;12.472;2022-10-17T15:56:35;1.13;;;0.70;;
74267;SDS011;62638;51.362;12.472;2022-10-17T15:59:03;0.85;;;0.65;;
74267;SDS011;62638;51.362;12.472;2022-10-17T16:01:30;1.25;;;0.68;;
74267;SDS011;62638;51.362;12.472;2022-10-17T16:03:57;1.05;;;0.80;;
74267;SDS011;62638;51.362;12.472;2022-10-17T16:06:23;1.60;;;0.93;;
74267;SDS011;62638;51.362;12.472;2022-10-17T16:08:49;0.85;;;0.60;;
74267;SDS011;62638;51.362;12.472;2022-10-17T16:11:21;1.35;;;0.80;;
74267;SDS011;62638;51.362;12.472;2022-10-17T16:13:53;2.47;;;1.20;;
74267;SDS011;62638;51.362;12.472;2022-10-17T16:16:20;2.40;;;0.95;;
74267;SDS011;62638;51.362;12.472;2022-10-17T16:18:47;2.80;;;1.05;;
74267;SDS011;62638;51.362;12.472;2022-10-17T16:21:13;1.25;;;0.90;;
74267;SDS011;62638;51.362;12.472;2022-10-17T16:26:06;1.17;;;0.77;;
74267;SDS011;62638;51.362;12.472;2022-10-17T16:28:34;2.55;;;1.00;;
74267;SDS011;62638;51.362;12.472;2022-10-17T16:31:01;4.18;;;1.35;;
74267;SDS011;62638;51.362;12.472;2022-10-17T16:33:26;4.65;;;1.23;;
74267;SDS011;62638;51.362;12.472;2022-10-17T16:35:51;1.50;;;1.10;;